createdAt,value
2023-01-10T00:01:10.588Z,99539.51
2023-01-10T00:04:01.803Z,99539.02
2023-01-10T00:06:56.140Z,99541.23
2023-01-10T00:09:50.140Z,99542.17
2023-01-10T00:13:05.542Z,99547.73
2023-01-10T00:15:57.858Z,99550.38
2023-01-10T00:18:50.596Z,99554.28
2023-01-10T00:21:55.441Z,99561.16
2023-01-10T00:24:59.977Z,99568.39
2023-01-10T00:28:10.968Z,99575.45
2023-01-10T00:31:11.252Z,99581.45
2023-01-10T00:34:35.263Z,99584.06
2023-01-10T00:37:29.982Z,99586.85
2023-01-10T00:40:22.785Z,99584.44
2023-01-10T00:44:01.074Z,99582.80
2023-01-10T00:46:52.993Z,99589.41
2023-01-10T00:49:43.262Z,99597.69
2023-01-10T00:52:36.124Z,99597.86
2023-01-10T00:55:28.127Z,99606.08
2023-01-10T00:58:21.246Z,99609.95
2023-01-10T01:01:33.896Z,99617.16
2023-01-10T01:04:46.513Z,99615.75
2023-01-10T01:07:55.547Z,99618.33
2023-01-10T01:10:45.135Z,99622.09
2023-01-10T01:13:38.461Z,99625.54
2023-01-10T01:16:28.473Z,99626.59
2023-01-10T01:19:23.123Z,99629.88
2023-01-10T01:22:13.889Z,99630.08
2023-01-10T01:25:07.178Z,99634.38
2023-01-10T02:18:21.000Z,99675.78
2023-01-10T02:21:59.347Z,99681.77
2023-01-10T02:25:41.998Z,99683.41
2023-01-10T02:29:43.298Z,99679.39
2023-01-10T02:32:53.575Z,99683.45
2023-01-10T02:36:13.006Z,99688.54
2023-01-10T02:39:20.571Z,99696.70
2023-01-10T02:42:14.283Z,99698.55
2023-01-10T02:45:18.243Z,99699.69
2023-01-10T02:48:29.554Z,99695.56
2023-01-10T02:51:27.397Z,99692.59
2023-01-10T02:54:24.259Z,99695.80
2023-01-10T02:57:51.440Z,99697.31
2023-01-10T03:00:50.809Z,99701.64
2023-01-10T03:04:50.060Z,99700.21
2023-01-10T03:07:10.632Z,99702.66
2023-01-10T03:10:07.038Z,99699.73
2023-01-10T03:13:02.787Z,99707.43
2023-01-10T03:15:59.040Z,99706.90
2023-01-10T03:19:04.934Z,99704.96
2023-01-10T03:22:06.016Z,99709.09
2023-01-10T03:25:02.531Z,99708.84
2023-01-10T03:28:16.769Z,99708.90
2023-01-10T03:31:12.583Z,99712.54
2023-01-10T03:34:04.749Z,99714.88
2023-01-10T03:37:03.349Z,99716.88
2023-01-10T03:40:12.435Z,99718.65
2023-01-10T03:44:53.327Z,99724.84
2023-01-10T03:47:05.304Z,99726.86
2023-01-10T03:50:03.891Z,99728.01
2023-01-10T03:53:16.386Z,99730.63
2023-01-10T03:56:08.312Z,99734.75
2023-01-10T03:59:02.779Z,99737.60
2023-01-10T04:01:59.048Z,99743.98
2023-01-10T04:04:51.912Z,99744.27
2023-01-10T04:07:42.904Z,99753.38
2023-01-10T04:10:35.681Z,99760.41
2023-01-10T04:13:30.878Z,99764.83
2023-01-10T04:16:31.221Z,99770.86
2023-01-10T04:19:23.234Z,99773.14
2023-01-10T04:22:19.013Z,99777.59
2023-01-10T04:25:21.359Z,99779.95
2023-01-10T04:28:14.905Z,99783.90
2023-01-10T04:31:08.021Z,99783.04
2023-01-10T04:33:58.645Z,99787.64
2023-01-10T04:36:57.933Z,99794.00
2023-01-10T04:39:49.267Z,99798.23
2023-01-10T04:42:40.176Z,99807.61
2023-01-10T04:45:31.767Z,99811.98
2023-01-10T04:48:27.606Z,99819.69
2023-01-10T04:51:17.376Z,99822.76
2023-01-10T04:54:07.483Z,99833.17
2023-01-10T04:57:19.000Z,99844.77
2023-01-10T05:00:13.312Z,99847.30
2023-01-10T05:03:03.840Z,99854.00
2023-01-10T05:06:16.518Z,99861.96
2023-01-10T05:09:11.467Z,99863.98
2023-01-10T05:12:02.166Z,99869.77
2023-01-10T05:15:01.899Z,99875.25
2023-01-10T05:18:01.210Z,99878.92
2023-01-10T05:21:18.633Z,99887.80
2023-01-10T05:24:12.523Z,99892.61
2023-01-10T05:27:02.838Z,99893.44
2023-01-10T05:29:50.630Z,99895.27
2023-01-10T05:32:43.134Z,99898.77
2023-01-10T05:35:36.950Z,99905.80
2023-01-10T05:38:35.146Z,99920.28
2023-01-10T05:41:32.739Z,99929.04
2023-01-10T05:44:28.384Z,99931.72
2023-01-10T05:47:18.159Z,99935.63
2023-01-10T05:50:11.872Z,99943.80
2023-01-10T05:53:05.370Z,99948.04
2023-01-10T05:56:03.063Z,99952.15
2023-01-10T05:59:11.641Z,99959.67
2023-01-10T06:02:30.202Z,99965.06
2023-01-10T06:05:29.752Z,99968.19
2023-01-10T06:08:20.608Z,99976.27
2023-01-10T06:11:11.619Z,99983.58
2023-01-10T06:14:03.239Z,99984.73
2023-01-10T06:17:02.057Z,99989.27
2023-01-10T06:20:00.935Z,99988.94
2023-01-10T06:22:53.718Z,100000.29
2023-01-10T06:25:48.222Z,100001.79
2023-01-10T06:28:45.945Z,100007.75
2023-01-10T06:31:38.354Z,100013.39
2023-01-10T06:34:34.512Z,100019.85
2023-01-10T06:37:32.132Z,100025.76
2023-01-10T06:40:22.583Z,100028.55
2023-01-10T06:43:18.094Z,100030.67
2023-01-10T06:46:11.755Z,100028.83
2023-01-10T06:49:08.407Z,100036.37
2023-01-10T06:52:01.398Z,100039.02
2023-01-10T06:54:57.905Z,100048.85
2023-01-10T06:57:48.607Z,100052.80
2023-01-10T07:00:39.954Z,100055.93
2023-01-10T07:03:31.422Z,100058.18
2023-01-10T07:06:23.956Z,100065.40
2023-01-10T07:09:15.757Z,100067.05
2023-01-10T07:12:30.379Z,100069.45
2023-01-10T07:15:20.065Z,100071.89
2023-01-10T07:18:12.857Z,100071.19
2023-01-10T07:21:05.000Z,100070.48
2023-01-10T07:24:18.275Z,100073.80
2023-01-10T07:27:10.641Z,100074.83
2023-01-10T07:30:02.245Z,100075.87
2023-01-10T07:32:56.691Z,100086.38
2023-01-10T07:36:04.238Z,100089.15
2023-01-10T07:39:03.558Z,100086.20
2023-01-10T07:43:12.674Z,100085.16
2023-01-10T07:45:09.142Z,100091.97
2023-01-10T07:48:00.296Z,100093.09
2023-01-10T07:50:50.712Z,100099.50
2023-01-10T07:53:42.436Z,100101.79
2023-01-10T07:56:35.522Z,100101.02
2023-01-10T07:59:32.151Z,100100.45
2023-01-10T08:02:28.514Z,100107.70
2023-01-10T08:05:19.277Z,100112.16
2023-01-10T08:08:30.211Z,100119.98
2023-01-10T08:11:19.086Z,100125.42
2023-01-10T08:14:14.868Z,100129.15
2023-01-10T08:17:11.713Z,100130.44
2023-01-10T08:20:02.534Z,100138.23
2023-01-10T08:23:56.841Z,100140.89
2023-01-10T08:26:41.703Z,100141.40
2023-01-10T08:29:34.373Z,100147.30
2023-01-10T08:32:30.869Z,100147.55
2023-01-10T08:35:22.915Z,100151.64
2023-01-10T08:38:16.027Z,100151.66
2023-01-10T08:41:07.277Z,100153.76
2023-01-10T08:44:16.384Z,100155.54
2023-01-10T08:47:07.924Z,100161.25
2023-01-10T08:50:14.984Z,100166.16
2023-01-10T08:53:07.700Z,100175.95
2023-01-10T08:56:08.307Z,100184.35
2023-01-10T09:00:06.216Z,100193.45
2023-01-10T09:02:28.324Z,100196.59
2023-01-10T09:05:27.556Z,100201.01
2023-01-10T09:08:29.983Z,100208.67
2023-01-10T09:11:23.247Z,100205.66
2023-01-10T09:14:13.348Z,100206.39
2023-01-10T09:17:05.256Z,100209.95
2023-01-10T09:19:59.021Z,100217.24
2023-01-10T09:22:49.760Z,100217.20
2023-01-10T09:25:46.134Z,100223.30
2023-01-10T09:28:42.907Z,100219.45
2023-01-10T09:31:54.467Z,100213.67
2023-01-10T09:34:46.736Z,100214.89
2023-01-10T09:37:37.545Z,100213.45
2023-01-10T09:40:41.573Z,100215.18
2023-01-10T09:43:44.060Z,100216.63
2023-01-10T09:46:50.633Z,100217.98
2023-01-10T09:49:54.033Z,100220.69
2023-01-10T09:52:48.427Z,100212.20
2023-01-10T09:55:39.396Z,100207.09
2023-01-10T09:58:35.011Z,100205.34
2023-01-10T10:01:40.227Z,100205.78
2023-01-10T10:04:41.700Z,100209.34
2023-01-10T10:07:34.892Z,100211.80
2023-01-10T10:10:27.866Z,100210.60
2023-01-10T10:13:28.885Z,100211.25
2023-01-10T10:16:41.035Z,100214.08
2023-01-10T10:19:40.044Z,100215.60
2023-01-10T10:22:42.282Z,100217.27
2023-01-10T10:25:51.767Z,100221.96
2023-01-10T10:29:24.602Z,100223.27
2023-01-10T10:33:10.536Z,100225.54
2023-01-10T10:36:07.055Z,100227.88
2023-01-10T10:39:04.405Z,100234.55
2023-01-10T10:42:00.418Z,100236.43
2023-01-10T10:45:17.882Z,100234.27
2023-01-10T10:48:19.080Z,100237.30
2023-01-10T10:51:16.466Z,100239.55
2023-01-10T10:54:08.213Z,100247.34
2023-01-10T10:56:58.095Z,100249.05
2023-01-10T10:59:54.392Z,100249.70
2023-01-10T11:02:50.438Z,100251.77
2023-01-10T11:05:45.849Z,100246.28
2023-01-10T11:08:40.864Z,100246.75
2023-01-10T11:11:45.012Z,100249.12
2023-01-10T11:14:52.329Z,100251.53
2023-01-10T11:17:40.356Z,100256.30
2023-01-10T11:20:30.326Z,100260.62
2023-01-10T11:23:30.248Z,100269.13
2023-01-10T11:26:34.845Z,100281.77
2023-01-10T11:29:32.212Z,100285.04
2023-01-10T11:32:38.522Z,100288.31
2023-01-10T11:35:32.264Z,100294.26
2023-01-10T11:38:24.571Z,100304.64
2023-01-10T11:41:31.934Z,100305.04
2023-01-10T11:44:26.829Z,100305.41
2023-01-10T11:47:20.670Z,100310.38
2023-01-10T11:50:22.020Z,100313.59
2023-01-10T11:53:45.068Z,100312.52
2023-01-10T11:56:39.368Z,100311.33
2023-01-10T11:59:32.448Z,100311.43
2023-01-10T12:02:52.352Z,100318.90
2023-01-10T12:05:55.186Z,100326.42
2023-01-10T12:08:47.451Z,100329.92
2023-01-10T12:11:41.038Z,100335.06
2023-01-10T12:14:21.771Z,100335.07
2023-01-10T12:18:09.536Z,100343.33
2023-01-10T12:20:33.926Z,100348.96
2023-01-10T12:23:25.655Z,100353.66
2023-01-10T12:26:17.141Z,100359.77
2023-01-10T12:29:18.122Z,100363.80
2023-01-10T12:32:17.842Z,100367.30
2023-01-10T12:35:16.803Z,100365.59
2023-01-10T12:38:18.558Z,100368.45
2023-01-10T12:41:33.043Z,100373.39
2023-01-10T12:44:33.373Z,100381.74
2023-01-10T12:47:44.213Z,100383.95
2023-01-10T12:50:34.247Z,100387.23
2023-01-10T12:53:31.768Z,100392.96
2023-01-10T12:56:47.188Z,100394.02
2023-01-10T13:00:49.846Z,100394.42
2023-01-10T13:03:14.767Z,100400.29
2023-01-10T13:06:06.351Z,100404.89
2023-01-10T13:09:03.353Z,100410.41
2023-01-10T13:13:10.361Z,100414.52
2023-01-10T13:15:34.424Z,100422.96
2023-01-10T13:18:29.511Z,100423.58
2023-01-10T13:21:24.231Z,100429.53
2023-01-10T13:24:22.876Z,100434.55
2023-01-10T13:27:35.541Z,100439.39
2023-01-10T13:30:32.031Z,100447.24
2023-01-10T13:33:27.050Z,100458.18
2023-01-10T13:36:24.177Z,100467.42
2023-01-10T13:39:31.474Z,100469.28
2023-01-10T13:42:49.383Z,100464.52
2023-01-10T13:45:55.465Z,100465.11
2023-01-10T13:49:21.326Z,100468.32
2023-01-10T13:52:35.175Z,100469.77
2023-01-10T13:55:56.005Z,100471.93
2023-01-10T13:59:07.558Z,100477.07
2023-01-10T14:02:46.106Z,100486.93
2023-01-10T14:05:54.547Z,100490.67
2023-01-10T14:08:56.249Z,100497.51
2023-01-10T14:12:04.321Z,100497.12
2023-01-10T14:15:01.059Z,100501.98
2023-01-10T14:18:02.061Z,100511.33
2023-01-10T14:21:02.623Z,100511.84
2023-01-10T14:24:00.665Z,100510.58
2023-01-10T14:26:55.347Z,100510.70
2023-01-10T14:29:55.331Z,100512.44
2023-01-10T14:32:51.269Z,100513.32
2023-01-10T14:35:50.880Z,100514.33
2023-01-10T14:38:57.009Z,100522.17
2023-01-10T14:41:51.318Z,100525.25
2023-01-10T14:44:59.804Z,100527.52
2023-01-10T14:48:29.879Z,100522.48
2023-01-10T14:51:28.324Z,100519.08
2023-01-10T14:54:20.388Z,100521.36
2023-01-10T14:57:42.987Z,100522.89
2023-01-10T15:00:49.311Z,100525.98
2023-01-10T15:03:47.905Z,100529.84
2023-01-10T15:06:59.945Z,100531.50
2023-01-10T15:10:17.808Z,100534.42
2023-01-10T15:13:14.292Z,100537.16
2023-01-10T15:16:14.397Z,100537.16
2023-01-10T15:18:57.711Z,100545.27
2023-01-10T15:21:49.135Z,100546.88
2023-01-10T15:24:56.251Z,100546.96
2023-01-10T15:27:51.806Z,100551.43
2023-01-10T15:30:44.926Z,100559.84
2023-01-10T15:33:39.066Z,100566.02
2023-01-10T15:36:30.508Z,100567.41
2023-01-10T15:39:24.863Z,100565.75
2023-01-10T15:42:27.652Z,100568.03
2023-01-10T15:45:38.905Z,100574.96
2023-01-10T15:48:33.886Z,100579.39
2023-01-10T15:51:33.100Z,100585.53
2023-01-10T15:54:34.598Z,100595.52
2023-01-10T15:57:37.348Z,100598.20
2023-01-10T16:00:27.330Z,100596.85
2023-01-10T16:03:26.631Z,100597.19
2023-01-10T16:06:27.736Z,100602.27
2023-01-10T16:09:24.901Z,100603.47
2023-01-10T16:12:56.873Z,100613.61
2023-01-10T16:15:48.280Z,100613.95
2023-01-10T16:18:42.253Z,100612.96
2023-01-10T16:21:39.002Z,100609.12
2023-01-10T16:24:25.287Z,100607.80
2023-01-10T16:27:28.428Z,100608.48
2023-01-10T16:30:24.755Z,100614.59
2023-01-10T16:33:27.516Z,100613.64
2023-01-10T16:36:21.360Z,100617.61
2023-01-10T16:39:18.084Z,100617.79
2023-01-10T16:42:31.300Z,100620.23
2023-01-10T16:45:23.864Z,100621.66
2023-01-10T16:48:18.218Z,100620.86
2023-01-10T16:51:18.431Z,100613.58
2023-01-10T16:54:19.058Z,100612.13
2023-01-10T16:57:14.196Z,100618.56
2023-01-10T17:00:05.021Z,100618.77
2023-01-10T17:02:57.918Z,100618.23
2023-01-10T17:05:48.300Z,100621.91
2023-01-10T17:08:48.171Z,100631.86
2023-01-10T17:11:31.009Z,100642.02
2023-01-10T17:14:21.536Z,100650.23
2023-01-10T17:17:16.653Z,100664.64
2023-01-10T17:20:18.787Z,100668.53
2023-01-10T17:23:11.156Z,100669.69
2023-01-10T17:26:04.106Z,100670.63
2023-01-10T17:29:16.960Z,100668.20
2023-01-10T17:32:14.853Z,100666.99
2023-01-10T17:35:00.581Z,100675.75
2023-01-10T17:37:57.205Z,100680.41
2023-01-10T17:40:31.332Z,100684.84
2023-01-10T17:43:25.839Z,100686.73
2023-01-10T17:46:22.368Z,100689.80
2023-01-10T17:49:16.447Z,100697.15
2023-01-10T17:52:14.647Z,100696.19
2023-01-10T17:55:09.671Z,100695.05
2023-01-10T17:58:02.691Z,100702.05
2023-01-10T18:01:06.988Z,100713.55
2023-01-10T18:04:08.491Z,100718.87
2023-01-10T18:07:01.475Z,100727.74
2023-01-10T18:10:17.461Z,100725.86
2023-01-10T18:13:25.956Z,100716.94
2023-01-10T18:16:09.660Z,100720.08
2023-01-10T18:19:08.164Z,100724.94
2023-01-10T18:22:00.926Z,100724.46
2023-01-10T18:25:08.183Z,100725.89
2023-01-10T18:28:01.978Z,100733.05
2023-01-10T18:30:52.357Z,100737.89
2023-01-10T18:34:11.511Z,100742.08
2023-01-10T18:37:00.903Z,100743.52
2023-01-10T18:39:57.758Z,100747.04
2023-01-10T18:43:05.643Z,100748.77
2023-01-10T18:46:04.440Z,100750.55
2023-01-10T18:48:56.142Z,100752.91
2023-01-10T18:51:46.109Z,100756.02
2023-01-10T18:54:39.613Z,100763.04
2023-01-10T18:57:36.254Z,100772.61
2023-01-10T19:00:32.251Z,100779.73
2023-01-10T19:03:30.804Z,100783.38
2023-01-10T19:06:23.117Z,100784.27
2023-01-10T19:09:05.859Z,100783.95
2023-01-10T19:12:00.396Z,100785.26
2023-01-10T19:14:56.795Z,100784.16
2023-01-10T19:17:49.794Z,100786.65
2023-01-10T19:20:43.784Z,100787.20
2023-01-10T19:23:34.442Z,100793.30
2023-01-10T19:26:57.090Z,100794.83
2023-01-10T19:30:12.904Z,100795.55
2023-01-10T19:33:07.540Z,100794.67
2023-01-10T19:36:04.886Z,100797.70
2023-01-10T19:39:00.241Z,100796.82
2023-01-10T19:42:00.263Z,100799.32
2023-01-10T19:45:25.787Z,100796.60
2023-01-10T19:48:38.042Z,100801.57
2023-01-10T19:51:32.268Z,100811.72
2023-01-10T19:54:48.995Z,100812.74
2023-01-10T19:58:01.544Z,100812.91
2023-01-10T20:01:07.674Z,100815.90
2023-01-10T20:04:07.891Z,100818.80
2023-01-10T20:07:01.460Z,100810.05
2023-01-10T20:10:01.357Z,100810.52
2023-01-10T20:13:00.484Z,100807.84
2023-01-10T20:15:51.200Z,100807.79
2023-01-10T20:18:42.355Z,100815.99
2023-01-10T20:21:32.710Z,100819.64
2023-01-10T20:24:28.941Z,100822.59
2023-01-10T20:27:19.996Z,100825.56
2023-01-10T20:30:13.562Z,100829.76
2023-01-10T20:33:05.542Z,100830.48
2023-01-10T20:36:00.240Z,100829.80
2023-01-10T20:38:50.852Z,100831.27
2023-01-10T20:41:41.238Z,100828.36
2023-01-10T20:44:32.402Z,100828.45
2023-01-10T20:47:58.340Z,100831.77
2023-01-10T20:50:50.344Z,100831.52
2023-01-10T20:53:45.547Z,100835.67
2023-01-10T20:56:38.306Z,100840.04
2023-01-10T20:59:32.001Z,100845.95
2023-01-10T21:02:36.078Z,100843.84
2023-01-10T21:05:33.127Z,100845.59
2023-01-10T21:08:29.914Z,100844.91
2023-01-10T21:12:22.015Z,100847.06
2023-01-10T21:14:37.942Z,100852.55
2023-01-10T21:17:31.856Z,100853.92
2023-01-10T21:20:44.134Z,100850.13
2023-01-10T21:23:40.224Z,100845.86
2023-01-10T21:26:33.495Z,100846.91
2023-01-10T21:29:19.318Z,100850.72
2023-01-10T21:32:12.280Z,100855.86
2023-01-10T21:35:01.921Z,100854.18
2023-01-10T21:37:59.883Z,100856.71
2023-01-10T21:41:40.344Z,100857.04
2023-01-10T21:44:31.639Z,100853.85
2023-01-10T21:47:30.984Z,100854.64
2023-01-10T21:50:28.767Z,100862.33
2023-01-10T21:53:19.563Z,100863.21
2023-01-10T21:56:10.218Z,100866.61
2023-01-10T21:59:04.305Z,100872.61
2023-01-10T22:02:02.378Z,100872.86
2023-01-10T22:05:00.391Z,100874.31
2023-01-10T22:07:51.179Z,100878.70
2023-01-10T22:10:41.857Z,100875.29
2023-01-10T22:13:31.775Z,100885.95
2023-01-10T22:16:34.454Z,100887.73
2023-01-10T22:19:32.928Z,100879.73
2023-01-10T22:22:33.657Z,100867.66
2023-01-10T22:25:27.506Z,100872.25
2023-01-10T22:28:19.511Z,100876.80
2023-01-10T22:31:12.710Z,100873.52
2023-01-10T22:34:02.772Z,100874.82
2023-01-10T22:36:52.371Z,100874.90
2023-01-10T22:39:43.609Z,100872.54
2023-01-10T22:42:35.780Z,100867.05
2023-01-10T22:45:32.155Z,100870.23
2023-01-10T22:48:25.072Z,100867.81
2023-01-10T22:51:19.035Z,100875.16
2023-01-10T22:54:15.075Z,100879.32
2023-01-10T22:57:06.340Z,100881.23
2023-01-10T23:00:00.169Z,100884.92
2023-01-10T23:03:06.825Z,100885.39
2023-01-10T23:06:05.406Z,100885.79
2023-01-10T23:09:00.298Z,100891.32
2023-01-10T23:11:49.877Z,100893.82
2023-01-10T23:14:39.885Z,100895.58
2023-01-10T23:17:36.130Z,100895.57
2023-01-10T23:20:27.345Z,100895.82
2023-01-10T23:23:31.629Z,100893.06
2023-01-10T23:26:23.281Z,100899.85
2023-01-10T23:29:05.687Z,100903.58
2023-01-10T23:32:03.977Z,100899.54
2023-01-10T23:35:11.055Z,100897.98
2023-01-10T23:37:42.180Z,100896.89
2023-01-10T23:40:36.053Z,100899.28
2023-01-10T23:43:28.080Z,100899.54
2023-01-10T23:46:18.111Z,100895.38
2023-01-10T23:49:11.475Z,100896.39
2023-01-10T23:51:57.337Z,100900.40
2023-01-10T23:55:07.587Z,100902.44
2023-01-10T23:57:58.407Z,100902.49
